Terminal Aerodrome Forecast
Issued by NWS Brownsville, TX

Home | Current Version | Previous Version | Text Only | Print | Product List | Glossary On
Versions: 1 2 3 4 5 6 7 8 9 10 11 12 13 14 15 16 17 18 19
449
FTUS44 KBRO 302320
TAFHRL
TAF
KHRL 302320Z 3100/3124 15018G26KT P6SM FEW040
     FM310200 15012G20KT P6SM SKC
     FM310400 15008KT P6SM SKC
     FM310800 15005KT P6SM SKC
     FM311600 16016G24KT P6SM SCT030=

USA.gov is the U.S. government's official web portal to all federal, state and local government web resources and services.